PWSweather.com
Personal Weather Stations
Station Observations
MADWEATHER
MadeiraPT

MadeiraPT

Lat: 32.735, Lon: -17.194

Elevation: 1063

Station Type: Davis VantagePro2

Latest ConditionsUpdated 6:10:02 PM GMT Tuesday, Nov 12, 2019
Currently Today's Max Today's Min Today's Average
Temperature 68.1°F20.1°C 71.9°F22.2°C 66.0°F18.9°C 67.9°F19.9°C
Dew Point 55.5°F13.1°C 57.4°F14.1°C 47.9°F8.8°C 52.2°F11.2°C
Winds 5.8 mph NE9.3 kmh NE 12.7 mph -20.4 kmh - - 2.4 mph 3.9 kmh
Wind Gusts 13.8 mph22.2 kmh 23.0 mph37.0 kmh - -
Humidity 64% 67% 52% 57%
Pressure 30.13 in1020.3 mb 30.23 in1023.7 mb 30.13 in1020.3 mb -
Hour Temp Dew Point Humidity Winds Wind Gusts Pressure Precip Precip Rate Daily Precip Total
06:10 PM 68.1°F20.1°C 55.5°F13.1°C 64% 5.8 mph NE9.3 kmh NE 13.8 mph22.2 kmh 30.13 in1020.3 mb - 0.00 in0.0 mm 0.00 in0.0 mm
06:00 PM 68.6°F20.3°C 57.2°F14.0°C 67% Calm Calm 3.5 mph5.6 kmh 30.13 in1020.3 mb - 0.00 in0.0 mm 0.00 in0.0 mm
05:50 PM 68.8°F20.4°C 57.4°F14.1°C 67% 3.5 mph SSE5.6 kmh SSE 4.6 mph7.4 kmh 30.14 in1020.7 mb - 0.00 in0.0 mm 0.00 in0.0 mm
05:40 PM 68.8°F20.4°C 57.0°F13.9°C 66% 3.5 mph SSE5.6 kmh SSE 3.5 mph5.6 kmh 30.14 in1020.7 mb - 0.00 in0.0 mm 0.00 in0.0 mm
05:30 PM 68.9°F20.5°C 57.4°F14.1°C 67% 2.3 mph SSE3.7 kmh SSE 4.6 mph7.4 kmh 30.14 in1020.7 mb - 0.00 in0.0 mm 0.00 in0.0 mm
05:20 PM 68.8°F20.4°C 57.4°F14.1°C 67% 3.5 mph SSE5.6 kmh SSE 4.6 mph7.4 kmh 30.14 in1020.7 mb - 0.00 in0.0 mm 0.00 in0.0 mm
05:10 PM 69.2°F20.7°C 56.5°F13.6°C 64% 2.3 mph SSE3.7 kmh SSE 3.5 mph5.6 kmh 30.14 in1020.7 mb - 0.00 in0.0 mm 0.00 in0.0 mm
05:00 PM 69.5°F20.8°C 56.8°F13.8°C 64% 3.5 mph SSE5.6 kmh SSE 4.6 mph7.4 kmh 30.14 in1020.7 mb - 0.00 in0.0 mm 0.00 in0.0 mm
04:50 PM 69.7°F20.9°C 56.1°F13.4°C 62% 2.3 mph SSE3.7 kmh SSE 4.6 mph7.4 kmh 30.14 in1020.7 mb - 0.00 in0.0 mm 0.00 in0.0 mm
04:40 PM 69.5°F20.8°C 56.8°F13.8°C 64% 3.5 mph SSE5.6 kmh SSE 3.5 mph5.6 kmh 30.14 in1020.7 mb - 0.00 in0.0 mm 0.00 in0.0 mm
04:30 PM 69.5°F20.8°C 57.2°F14.0°C 65% 3.5 mph SSE5.6 kmh SSE 3.5 mph5.6 kmh 30.14 in1020.7 mb - 0.00 in0.0 mm 0.00 in0.0 mm
04:20 PM 69.5°F20.8°C 56.8°F13.8°C 64% 2.3 mph SSE3.7 kmh SSE 3.5 mph5.6 kmh 30.14 in1020.7 mb - 0.00 in0.0 mm 0.00 in0.0 mm
04:10 PM 70.0°F21.1°C 55.9°F13.3°C 61% 4.6 mph SSE7.4 kmh SSE 5.8 mph9.3 kmh 30.15 in1021.0 mb - 0.00 in0.0 mm 0.00 in0.0 mm
04:00 PM 69.9°F21.1°C 56.7°F13.7°C 63% 4.6 mph SSE7.4 kmh SSE 5.8 mph9.3 kmh 30.14 in1020.7 mb - 0.00 in0.0 mm 0.00 in0.0 mm
03:50 PM 69.7°F20.9°C 56.1°F13.4°C 62% 5.8 mph SSE9.3 kmh SSE 6.9 mph11.1 kmh 30.14 in1020.7 mb - 0.00 in0.0 mm 0.00 in0.0 mm
03:40 PM 69.6°F20.9°C 56.0°F13.3°C 62% 4.6 mph SSE7.4 kmh SSE 9.2 mph14.8 kmh 30.14 in1020.7 mb - 0.00 in0.0 mm 0.00 in0.0 mm
03:30 PM 69.5°F20.8°C 55.4°F13.0°C 61% 5.8 mph SSE9.3 kmh SSE 4.6 mph7.4 kmh 30.14 in1020.7 mb - 0.00 in0.0 mm 0.00 in0.0 mm
03:20 PM 70.1°F21.2°C 55.6°F13.1°C 60% 3.5 mph SSE5.6 kmh SSE 6.9 mph11.1 kmh 30.14 in1020.7 mb - 0.00 in0.0 mm 0.00 in0.0 mm
03:10 PM 69.9°F21.1°C 54.9°F12.7°C 59% 5.8 mph SSE9.3 kmh SSE 6.9 mph11.1 kmh 30.14 in1020.7 mb - 0.00 in0.0 mm 0.00 in0.0 mm
03:00 PM 70.1°F21.2°C 54.7°F12.6°C 58% 6.9 mph SSE11.1 kmh SSE 9.2 mph14.8 kmh 30.14 in1020.7 mb - 0.00 in0.0 mm 0.00 in0.0 mm
02:50 PM 70.0°F21.1°C 56.4°F13.6°C 62% 5.8 mph S9.3 kmh S 6.9 mph11.1 kmh 30.14 in1020.7 mb - 0.00 in0.0 mm 0.00 in0.0 mm
02:40 PM 70.3°F21.3°C 55.7°F13.2°C 60% 5.8 mph S9.3 kmh S 6.9 mph11.1 kmh 30.14 in1020.7 mb - 0.00 in0.0 mm 0.00 in0.0 mm
02:30 PM 69.8°F21.0°C 54.8°F12.7°C 59% 4.6 mph S7.4 kmh S 4.6 mph7.4 kmh 30.15 in1021.0 mb - 0.00 in0.0 mm 0.00 in0.0 mm
02:20 PM 69.6°F20.9°C 55.6°F13.1°C 61% 4.6 mph S7.4 kmh S 6.9 mph11.1 kmh 30.15 in1021.0 mb - 0.00 in0.0 mm 0.00 in0.0 mm
02:10 PM 70.2°F21.2°C 55.2°F12.9°C 59% 5.8 mph S9.3 kmh S 8.1 mph13.0 kmh 30.15 in1021.0 mb - 0.00 in0.0 mm 0.00 in0.0 mm
02:00 PM 69.7°F20.9°C 55.2°F12.9°C 60% 4.6 mph S7.4 kmh S 4.6 mph7.4 kmh 30.15 in1021.0 mb - 0.00 in0.0 mm 0.00 in0.0 mm
01:50 PM 69.6°F20.9°C 56.0°F13.3°C 62% 5.8 mph S9.3 kmh S 6.9 mph11.1 kmh 30.15 in1021.0 mb - 0.00 in0.0 mm 0.00 in0.0 mm
01:40 PM 71.1°F21.7°C 57.4°F14.1°C 62% 4.6 mph S7.4 kmh S 8.1 mph13.0 kmh 30.15 in1021.0 mb - 0.00 in0.0 mm 0.00 in0.0 mm
01:30 PM 70.2°F21.2°C 56.5°F13.6°C 62% 3.5 mph S5.6 kmh S 5.8 mph9.3 kmh 30.16 in1021.3 mb - 0.00 in0.0 mm 0.00 in0.0 mm
01:20 PM 69.8°F21.0°C 56.2°F13.4°C 62% 4.6 mph S7.4 kmh S 3.5 mph5.6 kmh 30.16 in1021.3 mb - 0.00 in0.0 mm 0.00 in0.0 mm
01:10 PM 69.5°F20.8°C 56.3°F13.5°C 63% 4.6 mph S7.4 kmh S 5.8 mph9.3 kmh 30.17 in1021.7 mb - 0.00 in0.0 mm 0.00 in0.0 mm
01:00 PM 70.2°F21.2°C 56.1°F13.4°C 61% 4.6 mph S7.4 kmh S 5.8 mph9.3 kmh 30.17 in1021.7 mb - 0.00 in0.0 mm 0.00 in0.0 mm
12:50 PM 71.0°F21.7°C 56.9°F13.8°C 61% 4.6 mph S7.4 kmh S 9.2 mph14.8 kmh 30.18 in1022.0 mb - 0.00 in0.0 mm 0.00 in0.0 mm
12:40 PM 70.1°F21.2°C 55.5°F13.1°C 60% 3.5 mph S5.6 kmh S 9.2 mph14.8 kmh 30.18 in1022.0 mb - 0.00 in0.0 mm 0.00 in0.0 mm
12:30 PM 69.7°F20.9°C 55.7°F13.2°C 61% 6.9 mph S11.1 kmh S 9.2 mph14.8 kmh 30.18 in1022.0 mb - 0.00 in0.0 mm 0.00 in0.0 mm
12:20 PM 70.5°F21.4°C 56.4°F13.6°C 61% 2.3 mph SSW3.7 kmh SSW 9.2 mph14.8 kmh 30.19 in1022.4 mb - 0.00 in0.0 mm 0.00 in0.0 mm
12:10 PM 69.5°F20.8°C 55.9°F13.3°C 62% 5.8 mph SSW9.3 kmh SSW 6.9 mph11.1 kmh 30.19 in1022.4 mb - 0.00 in0.0 mm 0.00 in0.0 mm
12:00 PM 69.9°F21.1°C 55.9°F13.3°C 61% 5.8 mph SW9.3 kmh SW 10.4 mph16.7 kmh 30.19 in1022.4 mb - 0.00 in0.0 mm 0.00 in0.0 mm
11:50 AM 70.2°F21.2°C 57.0°F13.9°C 63% 4.6 mph SSW7.4 kmh SSW 6.9 mph11.1 kmh 30.19 in1022.4 mb - 0.00 in0.0 mm 0.00 in0.0 mm
11:40 AM 69.7°F20.9°C 56.0°F13.3°C 62% 3.5 mph SW5.6 kmh SW 3.5 mph5.6 kmh 30.20 in1022.7 mb - 0.00 in0.0 mm 0.00 in0.0 mm
11:30 AM 69.5°F20.8°C 56.0°F13.3°C 62% 3.5 mph SW5.6 kmh SW 4.6 mph7.4 kmh 30.20 in1022.7 mb - 0.00 in0.0 mm 0.00 in0.0 mm
11:20 AM 71.0°F21.7°C 56.9°F13.8°C 61% 4.6 mph ENE7.4 kmh ENE 11.5 mph18.5 kmh 30.19 in1022.4 mb - 0.00 in0.0 mm 0.00 in0.0 mm
11:10 AM 70.8°F21.6°C 56.3°F13.5°C 60% 5.8 mph ENE9.3 kmh ENE 6.9 mph11.1 kmh 30.19 in1022.4 mb - 0.00 in0.0 mm 0.00 in0.0 mm
11:00 AM 71.6°F22.0°C 56.1°F13.4°C 58% 4.6 mph E7.4 kmh E 6.9 mph11.1 kmh 30.19 in1022.4 mb - 0.00 in0.0 mm 0.00 in0.0 mm
10:50 AM 71.6°F22.0°C 55.6°F13.1°C 57% 12.7 mph ENE20.4 kmh ENE 23.0 mph37.0 kmh 30.19 in1022.4 mb - 0.00 in0.0 mm 0.00 in0.0 mm
10:40 AM 70.4°F21.3°C 55.4°F13.0°C 59% 3.5 mph E5.6 kmh E 3.5 mph5.6 kmh 30.20 in1022.7 mb - 0.00 in0.0 mm 0.00 in0.0 mm
10:30 AM 71.9°F22.2°C 55.3°F12.9°C 56% 4.6 mph E7.4 kmh E 10.4 mph16.7 kmh 30.20 in1022.7 mb - 0.00 in0.0 mm 0.00 in0.0 mm
10:20 AM 70.8°F21.6°C 56.2°F13.4°C 60% 5.8 mph ESE9.3 kmh ESE 6.9 mph11.1 kmh 30.20 in1022.7 mb - 0.00 in0.0 mm 0.00 in0.0 mm
10:10 AM 68.8°F20.4°C 55.7°F13.2°C 63% 4.6 mph S7.4 kmh S 8.1 mph13.0 kmh 30.20 in1022.7 mb - 0.00 in0.0 mm 0.00 in0.0 mm
10:00 AM 68.6°F20.3°C 55.9°F13.3°C 64% 4.6 mph S7.4 kmh S 6.9 mph11.1 kmh 30.20 in1022.7 mb - 0.00 in0.0 mm 0.00 in0.0 mm
09:50 AM 68.4°F20.2°C 54.4°F12.4°C 61% 6.9 mph S11.1 kmh S 6.9 mph11.1 kmh 30.19 in1022.4 mb - 0.00 in0.0 mm 0.00 in0.0 mm
09:40 AM 68.4°F20.2°C 55.3°F12.9°C 63% 9.2 mph S14.8 kmh S 11.5 mph18.5 kmh 30.20 in1022.7 mb - 0.00 in0.0 mm 0.00 in0.0 mm
09:30 AM 68.0°F20.0°C 56.2°F13.4°C 66% 4.6 mph SSE7.4 kmh SSE 6.9 mph11.1 kmh 30.20 in1022.7 mb - 0.00 in0.0 mm 0.00 in0.0 mm
09:20 AM 67.4°F19.7°C 55.2°F12.9°C 65% 8.1 mph SE13.0 kmh SE 11.5 mph18.5 kmh 30.19 in1022.4 mb - 0.00 in0.0 mm 0.00 in0.0 mm
09:10 AM 67.3°F19.6°C 54.7°F12.6°C 64% 5.8 mph ENE9.3 kmh ENE 11.5 mph18.5 kmh 30.19 in1022.4 mb - 0.00 in0.0 mm 0.00 in0.0 mm
09:00 AM 68.3°F20.2°C 55.2°F12.9°C 63% 2.3 mph ENE3.7 kmh ENE 6.9 mph11.1 kmh 30.19 in1022.4 mb - 0.00 in0.0 mm 0.00 in0.0 mm
08:50 AM 66.8°F19.3°C 54.7°F12.6°C 65% Calm Calm -- 30.19 in1022.4 mb - 0.00 in0.0 mm 0.00 in0.0 mm
08:40 AM 66.8°F19.3°C 54.7°F12.6°C 65% 2.3 mph ENE3.7 kmh ENE 4.6 mph7.4 kmh 30.19 in1022.4 mb - 0.00 in0.0 mm 0.00 in0.0 mm
08:30 AM 66.0°F18.9°C 47.9°F8.8°C 52% Calm Calm -- 30.19 in1022.4 mb - 0.00 in0.0 mm 0.00 in0.0 mm
08:20 AM 66.0°F18.9°C 47.9°F8.8°C 52% Calm Calm -- 30.19 in1022.4 mb - 0.00 in0.0 mm 0.00 in0.0 mm
08:10 AM 66.0°F18.9°C 47.9°F8.8°C 52% Calm Calm -- 30.19 in1022.4 mb - 0.00 in0.0 mm 0.00 in0.0 mm
08:00 AM 66.0°F18.9°C 47.9°F8.8°C 52% Calm Calm -- 30.18 in1022.0 mb - 0.00 in0.0 mm 0.00 in0.0 mm
07:50 AM 66.0°F18.9°C 47.9°F8.8°C 52% Calm Calm -- 30.18 in1022.0 mb - 0.00 in0.0 mm 0.00 in0.0 mm
07:40 AM 66.0°F18.9°C 47.9°F8.8°C 52% Calm Calm -- 30.18 in1022.0 mb - 0.00 in0.0 mm 0.00 in0.0 mm
07:30 AM 66.0°F18.9°C 47.9°F8.8°C 52% Calm Calm -- 30.17 in1021.7 mb - 0.00 in0.0 mm 0.00 in0.0 mm
07:20 AM 66.0°F18.9°C 47.9°F8.8°C 52% Calm Calm -- 30.17 in1021.7 mb - 0.00 in0.0 mm 0.00 in0.0 mm
07:10 AM 66.0°F18.9°C 47.9°F8.8°C 52% Calm Calm -- 30.17 in1021.7 mb - 0.00 in0.0 mm 0.00 in0.0 mm
07:00 AM 66.0°F18.9°C 47.9°F8.8°C 52% Calm Calm -- 30.17 in1021.7 mb - 0.00 in0.0 mm 0.00 in0.0 mm
06:50 AM 66.0°F18.9°C 47.9°F8.8°C 52% Calm Calm -- 30.17 in1021.7 mb - 0.00 in0.0 mm 0.00 in0.0 mm
06:40 AM 66.0°F18.9°C 47.9°F8.8°C 52% Calm Calm -- 30.17 in1021.7 mb - 0.00 in0.0 mm 0.00 in0.0 mm
06:30 AM 66.0°F18.9°C 47.9°F8.8°C 52% Calm Calm -- 30.17 in1021.7 mb - 0.00 in0.0 mm 0.00 in0.0 mm
06:20 AM 66.0°F18.9°C 47.9°F8.8°C 52% Calm Calm -- 30.17 in1021.7 mb - 0.00 in0.0 mm 0.00 in0.0 mm
06:10 AM 66.0°F18.9°C 47.9°F8.8°C 52% Calm Calm -- 30.17 in1021.7 mb - 0.00 in0.0 mm 0.00 in0.0 mm
06:00 AM 66.0°F18.9°C 47.9°F8.8°C 52% Calm Calm -- 30.17 in1021.7 mb - 0.00 in0.0 mm 0.00 in0.0 mm
05:50 AM 66.0°F18.9°C 47.9°F8.8°C 52% Calm Calm -- 30.17 in1021.7 mb - 0.00 in0.0 mm 0.00 in0.0 mm
05:40 AM 66.0°F18.9°C 47.9°F8.8°C 52% Calm Calm -- 30.17 in1021.7 mb - 0.00 in0.0 mm 0.00 in0.0 mm
05:30 AM 66.0°F18.9°C 47.9°F8.8°C 52% Calm Calm -- 30.17 in1021.7 mb - 0.00 in0.0 mm 0.00 in0.0 mm
05:20 AM 66.0°F18.9°C 47.9°F8.8°C 52% Calm Calm -- 30.17 in1021.7 mb - 0.00 in0.0 mm 0.00 in0.0 mm
05:10 AM 66.0°F18.9°C 47.9°F8.8°C 52% Calm Calm -- 30.17 in1021.7 mb - 0.00 in0.0 mm 0.00 in0.0 mm
05:00 AM 66.0°F18.9°C 47.9°F8.8°C 52% Calm Calm -- 30.17 in1021.7 mb - 0.00 in0.0 mm 0.00 in0.0 mm
04:50 AM 66.0°F18.9°C 47.9°F8.8°C 52% Calm Calm -- 30.17 in1021.7 mb - 0.00 in0.0 mm 0.00 in0.0 mm
04:40 AM 66.0°F18.9°C 47.9°F8.8°C 52% Calm Calm -- 30.17 in1021.7 mb - 0.00 in0.0 mm 0.00 in0.0 mm
04:30 AM 66.0°F18.9°C 47.9°F8.8°C 52% Calm Calm -- 30.17 in1021.7 mb - 0.00 in0.0 mm 0.00 in0.0 mm
04:20 AM 66.0°F18.9°C 47.9°F8.8°C 52% Calm Calm -- 30.18 in1022.0 mb - 0.00 in0.0 mm 0.00 in0.0 mm
04:10 AM 66.0°F18.9°C 47.9°F8.8°C 52% Calm Calm -- 30.18 in1022.0 mb - 0.00 in0.0 mm 0.00 in0.0 mm
04:00 AM 66.0°F18.9°C 47.9°F8.8°C 52% Calm Calm -- 30.18 in1022.0 mb - 0.00 in0.0 mm 0.00 in0.0 mm
03:50 AM 66.0°F18.9°C 47.9°F8.8°C 52% Calm Calm -- 30.18 in1022.0 mb - 0.00 in0.0 mm 0.00 in0.0 mm
03:40 AM 66.0°F18.9°C 47.9°F8.8°C 52% Calm Calm -- 30.18 in1022.0 mb - 0.00 in0.0 mm 0.00 in0.0 mm
03:30 AM 66.0°F18.9°C 47.9°F8.8°C 52% Calm Calm -- 30.18 in1022.0 mb - 0.00 in0.0 mm 0.00 in0.0 mm
03:20 AM 66.0°F18.9°C 47.9°F8.8°C 52% Calm Calm -- 30.18 in1022.0 mb - 0.00 in0.0 mm 0.00 in0.0 mm
03:10 AM 66.0°F18.9°C 47.9°F8.8°C 52% Calm Calm -- 30.18 in1022.0 mb - 0.00 in0.0 mm 0.00 in0.0 mm
03:00 AM 66.0°F18.9°C 47.9°F8.8°C 52% Calm Calm -- 30.18 in1022.0 mb - 0.00 in0.0 mm 0.00 in0.0 mm
02:50 AM 66.0°F18.9°C 47.9°F8.8°C 52% Calm Calm -- 30.19 in1022.4 mb - 0.00 in0.0 mm 0.00 in0.0 mm
02:40 AM 66.0°F18.9°C 47.9°F8.8°C 52% Calm Calm -- 30.19 in1022.4 mb - 0.00 in0.0 mm 0.00 in0.0 mm
02:30 AM 66.0°F18.9°C 47.9°F8.8°C 52% Calm Calm -- 30.19 in1022.4 mb - 0.00 in0.0 mm 0.00 in0.0 mm
02:20 AM 66.0°F18.9°C 47.9°F8.8°C 52% Calm Calm -- 30.20 in1022.7 mb - 0.00 in0.0 mm 0.00 in0.0 mm
02:10 AM 66.0°F18.9°C 47.9°F8.8°C 52% Calm Calm -- 30.19 in1022.4 mb - 0.00 in0.0 mm 0.00 in0.0 mm
02:00 AM 66.0°F18.9°C 47.9°F8.8°C 52% Calm Calm -- 30.20 in1022.7 mb - 0.00 in0.0 mm 0.00 in0.0 mm
01:50 AM 66.0°F18.9°C 47.9°F8.8°C 52% Calm Calm -- 30.20 in1022.7 mb - 0.00 in0.0 mm 0.00 in0.0 mm
01:40 AM 66.0°F18.9°C 47.9°F8.8°C 52% Calm Calm -- 30.20 in1022.7 mb - 0.00 in0.0 mm 0.00 in0.0 mm
01:30 AM 66.0°F18.9°C 47.9°F8.8°C 52% Calm Calm -- 30.21 in1023.0 mb - 0.00 in0.0 mm 0.00 in0.0 mm
01:20 AM 66.0°F18.9°C 47.9°F8.8°C 52% Calm Calm -- 30.20 in1022.7 mb - 0.00 in0.0 mm 0.00 in0.0 mm
01:10 AM 66.0°F18.9°C 47.9°F8.8°C 52% Calm Calm -- 30.21 in1023.0 mb - 0.00 in0.0 mm 0.00 in0.0 mm
01:00 AM 66.0°F18.9°C 47.9°F8.8°C 52% Calm Calm -- 30.21 in1023.0 mb - 0.00 in0.0 mm 0.00 in0.0 mm
12:50 AM 66.0°F18.9°C 47.9°F8.8°C 52% Calm Calm -- 30.22 in1023.4 mb - 0.00 in0.0 mm 0.00 in0.0 mm
12:40 AM 66.0°F18.9°C 47.9°F8.8°C 52% Calm Calm -- 30.22 in1023.4 mb - 0.00 in0.0 mm 0.00 in0.0 mm
12:30 AM 66.0°F18.9°C 47.9°F8.8°C 52% Calm Calm -- 30.22 in1023.4 mb - 0.00 in0.0 mm 0.00 in0.0 mm
12:20 AM 66.0°F18.9°C 47.9°F8.8°C 52% Calm Calm -- 30.22 in1023.4 mb - 0.00 in0.0 mm 0.00 in0.0 mm
12:10 AM 66.0°F18.9°C 47.9°F8.8°C 52% Calm Calm -- 30.23 in1023.7 mb - 0.00 in0.0 mm 0.00 in0.0 mm
12:00 AM 66.0°F18.9°C 47.9°F8.8°C 52% Calm Calm -- 30.23 in1023.7 mb - 0.00 in0.0 mm 0.00 in0.0 mm